Time;durP1;ratioP1;P1;durP2;ratioP2;P2;SDS_P1;SDS_P2;PMS_P1;PMS_P2;Temp;Humidity;BMP_temperature;BMP_pressure;BME280_temperature;BME280_humidity;BME280_pressure;Samples;Min_cycle;Max_cycle;Signal;HPM_P1;HPM_P2
2022/06/02 00:01:29;;;;;;;1.00;0.90;;;;;;;10.15;100.00;98525.72;15287656;19;20373;-55
2022/06/02 00:06:50;;;;;;;1.48;1.10;;;;;;;10.13;100.00;98511.56;15291801;19;20094;-54
2022/06/02 00:12:04;;;;;;;1.10;0.90;;;;;;;10.07;100.00;98522.97;15286036;19;20014;-55
2022/06/02 00:17:24;;;;;;;1.10;1.00;;;;;;;9.98;100.00;98524.75;15285519;19;20014;-53
2022/06/02 00:22:35;;;;;;;1.10;1.10;;;;;;;9.93;100.00;98537.84;15285451;19;20018;-55
2022/06/02 00:27:49;;;;;;;1.63;0.90;;;;;;;9.84;100.00;98535.03;15290583;19;20365;-54
2022/06/02 00:33:10;;;;;;;1.63;1.10;;;;;;;9.77;100.00;98533.97;15283154;19;20107;-57
2022/06/02 00:38:22;;;;;;;1.33;0.90;;;;;;;9.69;100.00;98520.47;15290697;19;20035;-58
2022/06/02 00:43:50;;;;;;;1.33;1.23;;;;;;;9.61;100.00;98523.06;15283977;19;20014;-57
2022/06/02 00:49:11;;;;;;;1.38;1.27;;;;;;;9.53;100.00;98532.75;15281387;19;20014;-54
2022/06/02 00:59:50;;;;;;;1.48;1.20;;;;;;;9.31;100.00;98550.13;15290681;19;20038;-53
2022/06/02 01:05:00;;;;;;;2.03;1.40;;;;;;;9.24;100.00;98557.94;15284436;19;20006;-51
2022/06/02 01:10:24;;;;;;;1.40;1.30;;;;;;;9.16;100.00;98557.84;15286712;19;20018;-52
2022/06/02 01:15:40;;;;;;;1.52;1.42;;;;;;;9.09;100.00;98559.44;15284335;19;20010;-55
2022/06/02 01:21:03;;;;;;;2.95;1.50;;;;;;;9.00;100.00;98563.00;15282724;19;20010;-58
2022/06/02 01:26:39;;;;;;;1.30;1.20;;;;;;;8.99;100.00;98555.97;15288688;19;20038;-55
2022/06/02 01:31:55;;;;;;;2.35;1.40;;;;;;;8.93;100.00;98555.53;15285375;19;20018;-50
2022/06/02 01:37:07;;;;;;;1.55;1.33;;;;;;;8.88;100.00;98567.72;15285842;19;20029;-55
2022/06/02 01:42:26;;;;;;;1.80;1.70;;;;;;;8.77;100.00;98564.22;15284284;19;20021;-54
2022/06/02 01:47:37;;;;;;;2.22;1.48;;;;;;;8.73;100.00;98573.56;15285953;19;20482;-52
2022/06/02 01:52:47;;;;;;;1.77;1.60;;;;;;;8.70;100.00;98573.00;15277289;19;20356;-58
2022/06/02 01:58:05;;;;;;;2.35;1.40;;;;;;;8.64;100.00;98574.44;15281973;19;20010;-50
2022/06/02 02:03:25;;;;;;;1.77;1.60;;;;;;;8.56;100.00;98583.22;15282393;19;20025;-53
2022/06/02 02:09:03;;;;;;;3.25;1.52;;;;;;;8.51;100.00;98585.50;15282307;19;20086;-51
2022/06/02 02:14:20;;;;;;;1.70;1.60;;;;;;;8.45;100.00;98589.59;15277314;19;20408;-59
2022/06/02 02:19:44;;;;;;;2.15;1.70;;;;;;;8.39;100.00;98592.00;15282769;19;20025;-52
2022/06/02 02:25:12;;;;;;;1.67;1.50;;;;;;;8.31;100.00;98598.91;15275227;19;20362;-57
2022/06/02 02:30:18;;;;;;;1.60;1.50;;;;;;;8.25;100.00;98595.94;15281586;19;20393;-58
2022/06/02 02:35:30;;;;;;;1.75;1.60;;;;;;;8.18;100.00;98603.72;15278062;19;20708;-57
2022/06/02 02:40:40;;;;;;;;;;;;;;;8.11;100.00;98595.41;15280538;19;20014;-54
2022/06/02 02:45:53;;;;;;;2.25;1.70;;;;;;;8.08;100.00;98594.81;15279121;19;19939;-50
2022/06/02 02:51:11;;;;;;;1.80;1.70;;;;;;;8.03;100.00;98597.94;15279379;19;20011;-58
2022/06/02 02:56:36;;;;;;;2.80;1.80;;;;;;;7.96;100.00;98603.00;15272823;19;20018;-56
2022/06/02 03:01:50;;;;;;;2.10;1.90;;;;;;;7.90;100.00;98614.31;15277837;19;20038;-55
2022/06/02 03:06:59;;;;;;;2.00;1.77;;;;;;;7.88;100.00;98615.44;15276013;19;20019;-56
2022/06/02 03:12:11;;;;;;;1.80;1.70;;;;;;;7.81;100.00;98626.72;15273783;19;20034;-55
2022/06/02 03:17:26;;;;;;;2.88;1.67;;;;;;;7.77;100.00;98629.81;15279770;19;20351;-53
2022/06/02 03:22:48;;;;;;;2.15;1.90;;;;;;;7.72;100.00;98636.44;15275726;19;20021;-59
2022/06/02 03:28:06;;;;;;;2.50;2.20;;;;;;;7.67;100.00;98644.06;15276966;19;20039;-58
2022/06/02 03:33:32;;;;;;;2.72;2.50;;;;;;;7.63;100.00;98647.97;15277151;19;20019;-54
2022/06/02 03:38:55;;;;;;;2.33;2.22;;;;;;;7.60;100.00;98650.09;15280154;19;20026;-50
2022/06/02 03:44:13;;;;;;;2.20;2.00;;;;;;;7.55;100.00;98654.03;15272040;19;20088;-58
2022/06/02 03:49:34;;;;;;;2.40;2.20;;;;;;;7.54;100.00;98670.25;15278495;19;20026;-52
2022/06/02 03:54:59;;;;;;;3.17;2.13;;;;;;;7.53;100.00;98666.72;15274282;19;20352;-52
2022/06/02 04:00:19;;;;;;;2.28;2.17;;;;;;;7.50;100.00;98676.88;15275534;19;20025;-53
2022/06/02 04:05:44;;;;;;;2.70;2.50;;;;;;;7.51;100.00;98684.78;15273172;19;20084;-52
2022/06/02 04:10:57;;;;;;;3.00;2.80;;;;;;;7.51;100.00;98700.00;15277142;19;20365;-54
2022/06/02 04:16:22;;;;;;;3.50;3.30;;;;;;;7.47;100.00;98698.56;15274086;19;20014;-59
2022/06/02 04:21:37;;;;;;;3.45;3.17;;;;;;;7.51;100.00;98705.38;15280386;19;20021;-55
2022/06/02 04:26:57;;;;;;;3.70;3.40;;;;;;;7.56;100.00;98719.25;15291365;19;20006;-61
2022/06/02 04:32:17;;;;;;;4.60;4.20;;;;;;;7.60;100.00;98734.06;15283583;19;20054;-57
2022/06/02 04:37:33;;;;;;;3.78;3.47;;;;;;;7.65;100.00;98742.56;15291428;19;20015;-57
2022/06/02 04:42:48;;;;;;;3.75;3.40;;;;;;;7.71;100.00;98749.22;15289018;19;20023;-53
2022/06/02 04:48:04;;;;;;;4.13;3.50;;;;;;;7.77;100.00;98750.50;15290676;19;20031;-62
2022/06/02 04:53:20;;;;;;;5.57;3.80;;;;;;;7.85;100.00;98758.72;15283021;19;20038;-54
2022/06/02 04:58:34;;;;;;;3.83;3.10;;;;;;;7.92;100.00;98754.53;15289249;19;20011;-54
2022/06/02 05:03:48;;;;;;;3.22;2.75;;;;;;;8.00;100.00;98753.81;15283814;19;20015;-51
2022/06/02 05:09:02;;;;;;;3.42;2.72;;;;;;;8.09;100.00;98758.38;15281954;19;20018;-55
2022/06/02 05:14:19;;;;;;;2.40;2.20;;;;;;;8.18;100.00;98748.63;15280144;19;20063;-53
2022/06/02 05:19:37;;;;;;;2.83;2.63;;;;;;;8.33;100.00;98754.47;15287127;19;20475;-58
2022/06/02 05:25:08;;;;;;;3.72;3.28;;;;;;;8.50;100.00;98763.72;15283717;19;20504;-59
2022/06/02 05:30:42;;;;;;;3.05;2.80;;;;;;;8.68;100.00;98768.38;15289253;19;20010;-55
2022/06/02 05:36:11;;;;;;;2.95;2.75;;;;;;;8.92;100.00;98778.72;15282135;19;20006;-56
2022/06/02 05:41:33;;;;;;;2.95;2.65;;;;;;;9.12;100.00;98765.25;15278045;19;20019;-56
2022/06/02 05:47:01;;;;;;;2.95;2.67;;;;;;;9.31;100.00;98762.53;15284430;19;20116;-57
2022/06/02 05:52:17;;;;;;;2.85;2.50;;;;;;;9.48;100.00;98770.84;15280159;19;20038;-54
2022/06/02 05:57:36;;;;;;;3.92;2.60;;;;;;;9.63;100.00;98766.72;15283405;19;20014;-52
2022/06/02 06:03:05;;;;;;;2.30;2.10;;;;;;;9.74;100.00;98770.22;15279507;19;20021;-54
2022/06/02 06:08:18;;;;;;;2.40;2.20;;;;;;;9.90;100.00;98769.56;15282888;19;20014;-55
2022/06/02 06:13:50;;;;;;;4.20;2.60;;;;;;;10.02;100.00;98776.47;15273234;19;20018;-56
2022/06/02 06:19:13;;;;;;;3.40;3.10;;;;;;;10.15;100.00;98779.66;15281642;19;20035;-55
2022/06/02 06:25:02;;;;;;;2.90;2.70;;;;;;;10.26;100.00;98775.06;15277653;19;20365;-58
2022/06/02 06:30:13;;;;;;;3.08;2.78;;;;;;;10.37;100.00;98788.31;15281479;19;20025;-62
2022/06/02 06:35:35;;;;;;;3.30;2.65;;;;;;;10.45;100.00;98784.91;15277873;19;20026;-57
2022/06/02 06:40:57;;;;;;;3.25;2.95;;;;;;;10.63;100.00;98793.84;15279623;19;20006;-59
2022/06/02 06:46:18;;;;;;;3.08;2.88;;;;;;;10.76;100.00;98793.47;15273956;19;20014;-61
2022/06/02 06:51:36;;;;;;;2.77;2.57;;;;;;;10.93;100.00;98793.63;15278863;19;20003;-61
2022/06/02 06:56:52;;;;;;;2.70;2.50;;;;;;;11.03;100.00;98788.16;15278333;19;20247;-62
2022/06/02 07:02:08;;;;;;;2.53;2.30;;;;;;;11.18;100.00;98786.59;15278978;19;20471;-60
2022/06/02 07:07:21;;;;;;;2.10;2.00;;;;;;;11.37;100.00;98788.25;15280209;19;20022;-59
2022/06/02 07:18:00;;;;;;;2.88;1.80;;;;;;;11.81;100.00;98781.97;15274131;19;20040;-59
2022/06/02 07:23:23;;;;;;;2.08;1.60;;;;;;;11.93;100.00;98784.38;15274859;19;20007;-60
2022/06/02 07:28:35;;;;;;;1.92;1.70;;;;;;;12.29;100.00;98795.88;15277714;19;20077;-58
2022/06/02 07:33:51;;;;;;;;;;;;;;;12.27;100.00;98791.66;15272531;19;20494;-60
2022/06/02 07:39:29;;;;;;;2.33;1.70;;;;;;;12.43;100.00;98791.72;15279188;19;19917;-60
2022/06/02 07:45:03;;;;;;;1.70;1.60;;;;;;;12.46;100.00;98793.22;15270655;19;20499;-59
2022/06/02 07:50:17;;;;;;;1.77;1.48;;;;;;;12.57;100.00;98798.34;15271518;19;20018;-60
2022/06/02 07:55:32;;;;;;;2.05;1.60;;;;;;;12.71;100.00;98796.84;15276273;19;20349;-59
2022/06/02 08:00:46;;;;;;;2.38;1.73;;;;;;;12.86;100.00;98807.88;15290089;19;20356;-60
2022/06/02 08:05:57;;;;;;;1.33;1.23;;;;;;;12.95;100.00;98803.28;15289243;19;20486;-59
2022/06/02 08:11:27;;;;;;;1.30;1.20;;;;;;;13.08;100.00;98797.41;15289923;19;20034;-61
2022/06/02 08:16:49;;;;;;;1.83;1.10;;;;;;;13.09;100.00;98804.50;15291958;19;20034;-58
2022/06/02 08:21:59;;;;;;;1.10;1.00;;;;;;;13.30;100.00;98808.56;15280448;19;20077;-60
2022/06/02 08:27:18;;;;;;;0.93;0.90;;;;;;;13.42;100.00;98823.47;15289047;19;20018;-60
2022/06/02 08:32:40;;;;;;;1.33;0.90;;;;;;;13.52;100.00;98818.72;15284941;19;20014;-59
2022/06/02 08:38:02;;;;;;;1.25;1.10;;;;;;;13.63;100.00;98814.84;15290684;19;20128;-60
2022/06/02 08:43:36;;;;;;;4.43;1.05;;;;;;;13.71;100.00;98822.09;15287778;19;20022;-59
2022/06/02 08:49:18;;;;;;;0.80;0.80;;;;;;;13.84;100.00;98818.88;15288743;19;20039;-58
2022/06/02 08:55:13;;;;;;;1.10;0.80;;;;;;;13.99;100.00;98814.41;15278132;19;20006;-60
2022/06/02 09:01:03;;;;;;;0.70;0.70;;;;;;;14.21;100.00;98813.84;15288800;19;20098;-60
2022/06/02 09:06:56;;;;;;;0.97;0.70;;;;;;;14.25;100.00;98807.06;15285482;19;20366;-59
2022/06/02 09:12:32;;;;;;;0.40;0.40;;;;;;;14.30;100.00;98815.47;15286616;19;20018;-59
2022/06/02 09:17:48;;;;;;;0.57;0.50;;;;;;;14.22;100.00;98812.81;15287032;19;20045;-60
2022/06/02 09:23:05;;;;;;;0.50;0.30;;;;;;;14.68;100.00;98818.38;15276835;19;20018;-61
2022/06/02 09:28:44;;;;;;;1.20;0.80;;;;;;;14.77;100.00;98808.34;15286598;19;20124;-59
2022/06/02 09:34:16;;;;;;;0.52;0.50;;;;;;;15.00;100.00;98821.91;15278918;19;20733;-59
2022/06/02 09:39:42;;;;;;;0.63;0.47;;;;;;;14.69;100.00;98828.22;15285289;19;20014;-59
2022/06/02 09:45:03;;;;;;;0.60;0.60;;;;;;;14.77;100.00;98817.31;15279070;19;20633;-61
2022/06/02 09:50:26;;;;;;;0.82;0.68;;;;;;;15.07;100.00;98816.63;15285561;19;20034;-59
2022/06/02 09:55:41;;;;;;;1.38;0.60;;;;;;;15.25;100.00;98832.59;15272016;19;20010;-60
2022/06/02 10:01:25;;;;;;;0.85;0.50;;;;;;;15.19;100.00;98827.91;15283724;19;20333;-58
2022/06/02 10:07:15;;;;;;;1.00;0.60;;;;;;;15.30;100.00;98835.63;15281068;19;20021;-59
2022/06/02 10:18:01;;;;;;;0.60;0.55;;;;;;;15.49;100.00;98841.56;15281825;19;20014;-60
2022/06/02 10:23:35;;;;;;;0.63;0.45;;;;;;;15.72;100.00;98847.81;15280286;19;20011;-61
2022/06/02 10:29:24;;;;;;;0.30;0.30;;;;;;;15.77;84.24;98841.00;15276077;19;20030;-59
2022/06/02 10:35:02;;;;;;;0.30;0.30;;;;;;;15.82;89.82;98839.41;15277750;19;20022;-60
2022/06/02 10:40:29;;;;;;;0.73;0.50;;;;;;;16.02;100.00;98845.19;15280736;19;20010;-61
2022/06/02 10:45:56;;;;;;;0.40;0.40;;;;;;;16.12;100.00;98850.31;15275228;19;20350;-59
2022/06/02 10:51:30;;;;;;;0.40;0.40;;;;;;;15.86;87.90;98854.34;15278809;19;20482;-61
2022/06/02 10:57:10;;;;;;;0.63;0.32;;;;;;;16.16;84.05;98851.66;15277892;19;20025;-60
2022/06/02 11:02:56;;;;;;;0.30;0.30;;;;;;;16.18;99.81;98857.75;15269337;19;20377;-60
2022/06/02 11:08:38;;;;;;;0.30;0.30;;;;;;;16.33;98.37;98846.03;15279868;19;20350;-60
2022/06/02 11:14:25;;;;;;;0.20;0.20;;;;;;;16.51;86.81;98840.22;15273197;19;20015;-59
2022/06/02 11:20:00;;;;;;;0.30;0.20;;;;;;;16.56;64.51;98847.78;15280602;19;20021;-60
2022/06/02 11:25:34;;;;;;;0.40;0.30;;;;;;;16.77;72.84;98845.13;15275514;19;20471;-58
2022/06/02 11:31:14;;;;;;;0.30;0.30;;;;;;;16.98;76.69;98840.78;15279864;19;20018;-61
2022/06/02 11:37:04;;;;;;;0.35;0.30;;;;;;;17.05;77.65;98827.25;15270947;19;20023;-60
2022/06/02 11:42:28;;;;;;;0.43;0.30;;;;;;;16.97;80.25;98822.75;15276796;19;20011;-60
2022/06/02 11:47:56;;;;;;;0.30;0.30;;;;;;;17.13;77.98;98829.84;15275767;19;20385;-61
2022/06/02 11:53:32;;;;;;;0.20;0.20;;;;;;;17.21;69.96;98821.56;15275909;19;20753;-61
2022/06/02 11:59:02;;;;;;;0.52;0.20;;;;;;;17.29;73.17;98822.44;15279155;19;20480;-61
2022/06/02 12:04:43;;;;;;;0.57;0.30;;;;;;;17.28;65.75;98815.31;15266212;19;20081;-61
2022/06/02 12:10:30;;;;;;;1.20;0.35;;;;;;;17.40;63.94;98811.03;15277461;19;20124;-60
2022/06/02 12:16:00;;;;;;;1.35;0.30;;;;;;;17.62;63.11;98816.44;15269262;19;20019;-61
2022/06/02 12:21:29;;;;;;;0.20;0.20;;;;;;;17.97;70.05;98811.94;15273611;19;20038;-61
2022/06/02 12:26:44;;;;;;;0.28;0.28;;;;;;;18.14;71.67;98811.59;15273973;19;20475;-61
2022/06/02 12:32:07;;;;;;;0.43;0.25;;;;;;;18.22;60.78;98806.00;15272043;19;20388;-60
2022/06/02 12:37:38;;;;;;;1.00;0.30;;;;;;;18.33;62.77;98799.97;15265687;19;20019;-61
2022/06/02 12:43:09;;;;;;;0.20;0.20;;;;;;;18.48;58.99;98808.00;15276805;19;20034;-62
2022/06/02 12:48:44;;;;;;;1.25;0.30;;;;;;;18.41;56.04;98801.66;15287363;19;21599;-62
2022/06/02 12:54:30;;;;;;;0.10;0.10;;;;;;;19.03;69.50;98803.59;15285770;19;20051;-60
2022/06/02 13:00:05;;;;;;;0.30;0.30;;;;;;;18.82;55.87;98802.63;15290569;19;20018;-62
2022/06/02 13:05:48;;;;;;;0.30;0.20;;;;;;;19.08;57.94;98811.97;15278336;19;20018;-61
2022/06/02 13:11:25;;;;;;;0.30;0.30;;;;;;;19.18;60.26;98800.66;15278560;19;20022;-62
2022/06/02 13:16:59;;;;;;;0.80;0.38;;;;;;;19.64;61.38;98804.47;15280524;19;20007;-62
2022/06/02 13:22:40;;;;;;;0.30;0.30;;;;;;;19.48;58.07;98800.25;15280674;19;20089;-61
2022/06/02 13:28:38;;;;;;;0.70;0.20;;;;;;;19.67;58.99;98793.09;15286798;19;20038;-63
2022/06/02 13:34:15;;;;;;;0.85;0.20;;;;;;;20.19;59.89;98784.22;15279933;19;20017;-63
2022/06/02 13:39:53;;;;;;;0.40;0.30;;;;;;;20.45;56.68;98775.91;15283372;19;20580;-62
2022/06/02 13:45:27;;;;;;;1.45;0.40;;;;;;;21.35;57.84;98781.50;15270524;19;20042;-61
2022/06/02 13:50:55;;;;;;;0.82;0.20;;;;;;;21.11;55.03;98777.69;15280871;19;20011;-62
2022/06/02 14:01:50;;;;;;;2.42;0.30;;;;;;;21.94;53.84;98772.97;15281824;19;20007;-63
2022/06/02 14:07:03;;;;;;;1.85;0.30;;;;;;;22.52;53.74;98779.97;15282962;19;20010;-62
2022/06/02 14:12:33;;;;;;;3.55;0.30;;;;;;;22.15;46.34;98774.47;15278369;19;20010;-63
2022/06/02 14:18:00;;;;;;;1.25;0.20;;;;;;;21.94;48.43;98782.06;15276765;19;20019;-63
2022/06/02 14:23:21;;;;;;;13.25;0.50;;;;;;;22.29;47.45;98777.88;15272553;19;20023;-60
2022/06/02 14:28:48;;;;;;;0.68;0.40;;;;;;;22.20;46.50;98776.50;15276249;19;20495;-63
2022/06/02 14:34:09;;;;;;;1.52;0.10;;;;;;;22.69;46.97;98771.94;15275637;19;20040;-61
2022/06/02 14:39:27;;;;;;;0.43;0.20;;;;;;;23.50;48.24;98768.00;15282195;19;20019;-62
2022/06/02 14:44:50;;;;;;;1.02;0.30;;;;;;;23.56;48.16;98772.56;15270814;19;20129;-61
2022/06/02 14:50:18;;;;;;;0.20;0.13;;;;;;;23.85;48.06;98772.66;15277929;19;20093;-61
2022/06/02 14:55:29;;;;;;;0.43;0.10;;;;;;;23.90;48.26;98767.28;15273342;19;20510;-62
2022/06/02 15:00:41;;;;;;;;;;;;;;;22.40;44.68;98755.16;15272207;19;20420;-66
2022/06/02 15:05:58;;;;;;;2.00;0.20;;;;;;;22.94;48.47;98748.97;15266809;19;19907;-63
2022/06/02 15:11:13;;;;;;;0.13;0.10;;;;;;;23.05;45.62;98755.59;15275852;19;20070;-59
2022/06/02 15:17:01;;;;;;;0.35;0.20;;;;;;;23.46;44.26;98758.56;15269738;19;20014;-62
2022/06/02 15:22:41;;;;;;;0.10;0.10;;;;;;;22.55;44.03;98757.53;15275122;19;20358;-62
2022/06/02 15:28:12;;;;;;;0.25;0.20;;;;;;;21.69;45.54;98741.81;15275043;19;20026;-66
2022/06/02 15:33:54;;;;;;;1.65;0.30;;;;;;;22.09;46.43;98743.28;15270915;19;20014;-61
2022/06/02 15:39:29;;;;;;;0.63;0.30;;;;;;;22.11;46.78;98740.31;15271933;19;20011;-62
2022/06/02 15:45:27;;;;;;;0.40;0.20;;;;;;;22.24;45.67;98728.34;15273647;19;20491;-63
2022/06/02 15:51:19;;;;;;;0.75;0.10;;;;;;;22.61;45.16;98723.66;15267339;19;20019;-64
2022/06/02 15:57:12;;;;;;;0.10;0.10;;;;;;;22.56;45.82;98730.91;15271086;19;20020;-62
2022/06/02 16:02:55;;;;;;;0.22;0.17;;;;;;;22.26;44.47;98731.69;15264390;19;20006;-61
2022/06/02 16:08:32;;;;;;;0.43;0.10;;;;;;;22.72;44.25;98740.41;15273359;19;20090;-61
2022/06/02 16:14:05;;;;;;;0.25;0.20;;;;;;;23.19;43.84;98731.47;15267484;19;20000;-62
2022/06/02 16:19:45;;;;;;;0.55;0.20;;;;;;;23.46;44.35;98737.38;14775846;19;10001451;-63
2022/06/02 16:25:38;;;;;;;0.55;0.10;;;;;;;23.50;41.71;98735.84;15277456;19;20042;-62
2022/06/02 16:31:08;;;;;;;2.17;0.20;;;;;;;23.54;44.48;98738.94;15270685;19;20263;-62
2022/06/02 16:36:40;;;;;;;0.32;0.10;;;;;;;22.87;44.49;98742.75;15281935;19;20029;-62
2022/06/02 16:42:01;;;;;;;0.63;0.30;;;;;;;22.75;46.40;98749.03;15286145;19;20023;-61
2022/06/02 16:47:26;;;;;;;2.03;0.28;;;;;;;22.93;46.09;98747.28;15286294;19;20014;-60
2022/06/02 16:52:55;;;;;;;0.52;0.20;;;;;;;22.84;45.37;98740.47;15280242;19;20028;-59
2022/06/02 16:58:23;;;;;;;0.50;0.17;;;;;;;23.19;45.65;98745.22;15272620;19;20014;-59
2022/06/02 17:03:59;;;;;;;0.22;0.20;;;;;;;23.17;46.38;98747.34;15282754;19;20479;-58
2022/06/02 17:09:38;;;;;;;0.35;0.20;;;;;;;23.06;44.76;98751.72;15281938;19;20023;-57
2022/06/02 17:14:56;;;;;;;0.55;0.20;;;;;;;23.22;46.05;98758.53;15278883;19;20018;-60
2022/06/02 17:20:24;;;;;;;0.50;0.25;;;;;;;23.09;47.36;98759.53;15283344;19;20348;-59
2022/06/02 17:25:52;;;;;;;1.20;0.20;;;;;;;22.91;47.47;98753.03;15276785;19;20004;-61
2022/06/02 17:31:11;;;;;;;1.85;0.20;;;;;;;22.65;49.12;98756.97;15278570;19;20393;-61
2022/06/02 17:36:43;;;;;;;0.70;0.30;;;;;;;22.61;48.77;98755.78;15281562;19;20014;-60
2022/06/02 17:42:19;;;;;;;0.55;0.10;;;;;;;22.62;49.93;98762.94;15280386;19;20015;-60
2022/06/02 17:47:39;;;;;;;0.60;0.30;;;;;;;22.64;49.75;98766.28;15282459;19;20010;-60
2022/06/02 17:53:02;;;;;;;1.73;0.20;;;;;;;22.70;50.89;98764.50;15280377;19;20010;-61
2022/06/02 17:58:27;;;;;;;0.20;0.20;;;;;;;22.70;51.12;98759.88;15274706;19;20031;-60
2022/06/02 18:03:45;;;;;;;0.65;0.20;;;;;;;22.76;53.04;98771.84;15275748;19;20491;-62
2022/06/02 18:09:05;;;;;;;0.68;0.20;;;;;;;22.57;52.74;98773.78;15278285;19;20010;-60
2022/06/02 18:14:40;;;;;;;0.50;0.10;;;;;;;22.29;52.41;98769.63;15276633;19;20010;-60
2022/06/02 18:19:55;;;;;;;0.20;0.20;;;;;;;22.12;53.88;98775.75;15280394;19;20527;-61
2022/06/02 18:25:30;;;;;;;0.45;0.10;;;;;;;21.77;54.67;98762.63;15275266;19;20034;-61
2022/06/02 18:30:47;;;;;;;0.55;0.20;;;;;;;21.37;54.69;98763.78;15275073;19;20021;-63
2022/06/02 18:36:06;;;;;;;1.48;0.30;;;;;;;20.84;56.39;98753.19;15275021;19;20463;-59
2022/06/02 18:41:43;;;;;;;0.30;0.20;;;;;;;20.31;57.02;98755.97;15277004;19;20582;-59
2022/06/02 18:47:18;;;;;;;0.47;0.20;;;;;;;19.90;58.70;98754.41;15268948;19;20354;-61
2022/06/02 18:52:49;;;;;;;1.13;0.20;;;;;;;19.33;60.54;98748.56;15277559;19;20491;-62
2022/06/02 18:58:26;;;;;;;1.20;0.20;;;;;;;18.88;64.95;98758.16;15278037;19;20010;-64
2022/06/02 19:04:14;;;;;;;3.47;0.32;;;;;;;18.55;69.23;98761.63;15270845;19;20535;-62
2022/06/02 19:15:22;;;;;;;1.02;0.38;;;;;;;17.82;79.52;98770.28;15270742;19;20082;-64
2022/06/02 19:26:23;;;;;;;1.88;0.30;;;;;;;17.19;88.14;98781.94;15269837;19;20011;-66
2022/06/02 19:31:43;;;;;;;2.30;0.35;;;;;;;16.94;91.45;98802.22;15270869;19;20039;-62
2022/06/02 19:36:58;;;;;;;0.47;0.38;;;;;;;16.76;94.39;98805.34;15271230;19;20023;-64
2022/06/02 19:42:09;;;;;;;2.38;0.30;;;;;;;16.61;98.19;98816.28;15278042;19;20024;-63
2022/06/02 19:47:21;;;;;;;0.40;0.25;;;;;;;16.43;100.00;98810.38;15273420;19;20019;-65
2022/06/02 19:52:40;;;;;;;0.38;0.38;;;;;;;16.26;100.00;98807.03;15287109;19;20793;-62
2022/06/02 19:57:54;;;;;;;2.55;0.40;;;;;;;16.02;100.00;98811.72;15288022;19;20482;-63
2022/06/02 20:03:07;;;;;;;1.70;0.50;;;;;;;15.87;100.00;98819.84;15292957;19;20107;-64
2022/06/02 20:08:24;;;;;;;0.95;0.43;;;;;;;15.69;100.00;98814.75;15278829;19;20007;-64
2022/06/02 20:13:37;;;;;;;0.73;0.43;;;;;;;15.55;100.00;98819.13;15291592;19;20348;-64
2022/06/02 20:18:48;;;;;;;0.77;0.40;;;;;;;15.40;100.00;98816.38;15285583;19;20467;-64
2022/06/02 20:24:05;;;;;;;0.90;0.40;;;;;;;15.27;100.00;98811.53;15291991;19;20010;-64
2022/06/02 20:29:24;;;;;;;0.73;0.30;;;;;;;15.12;100.00;98808.78;15294582;19;20014;-64
2022/06/02 20:34:59;;;;;;;1.40;0.47;;;;;;;14.98;100.00;98813.13;15288980;19;20007;-64
2022/06/02 20:40:11;;;;;;;0.95;0.40;;;;;;;14.88;100.00;98820.63;15282909;19;20014;-64
2022/06/02 20:45:22;;;;;;;2.22;0.60;;;;;;;14.72;100.00;98822.44;15286383;19;20027;-64
2022/06/02 20:50:30;;;;;;;0.55;0.50;;;;;;;14.49;100.00;98814.22;15291948;19;20017;-62
2022/06/02 20:55:47;;;;;;;0.95;0.55;;;;;;;14.36;100.00;98816.66;15287788;19;20023;-61
2022/06/02 21:00:57;;;;;;;0.82;0.50;;;;;;;14.22;100.00;98807.41;15290977;19;20017;-60
2022/06/02 21:06:12;;;;;;;0.75;0.60;;;;;;;14.13;100.00;98814.69;15283323;19;20018;-63
2022/06/02 21:11:25;;;;;;;0.93;0.50;;;;;;;14.00;100.00;98816.09;15289663;19;20030;-62
2022/06/02 21:16:34;;;;;;;1.27;0.50;;;;;;;13.95;100.00;98820.34;15257117;19;20031;-63
2022/06/02 21:21:59;;;;;;;1.10;0.70;;;;;;;13.83;100.00;98831.53;15285606;19;20027;-63
2022/06/02 21:27:17;;;;;;;2.45;0.50;;;;;;;13.69;100.00;98835.81;15283771;19;20007;-63
2022/06/02 21:32:28;;;;;;;1.00;0.57;;;;;;;13.63;100.00;98838.34;15287071;19;20023;-60
2022/06/02 21:37:39;;;;;;;0.87;0.73;;;;;;;13.52;100.00;98850.38;15280657;19;20038;-63
2022/06/02 21:42:52;;;;;;;1.15;0.47;;;;;;;13.25;100.00;98847.78;15284261;19;20014;-62
2022/06/02 21:48:09;;;;;;;1.35;0.60;;;;;;;13.16;100.00;98850.69;15276163;19;20014;-59
2022/06/02 21:53:25;;;;;;;0.60;0.50;;;;;;;13.01;100.00;98839.66;15283083;19;20349;-61
2022/06/02 21:58:45;;;;;;;0.73;0.47;;;;;;;13.00;100.00;98841.50;15277966;19;20027;-61
2022/06/02 22:04:00;;;;;;;1.13;0.70;;;;;;;12.98;100.00;98853.53;15283198;19;20475;-62
2022/06/02 22:09:09;;;;;;;2.90;0.60;;;;;;;12.95;100.00;98833.03;15283776;19;20014;-60
2022/06/02 22:14:26;;;;;;;1.10;0.50;;;;;;;12.90;100.00;98830.84;15282014;19;20007;-61
2022/06/02 22:19:38;;;;;;;1.05;0.60;;;;;;;12.89;100.00;98829.16;15272418;19;20003;-61
2022/06/02 22:24:52;;;;;;;;;;;;;;;12.88;100.00;98842.84;15280094;19;20021;-60
2022/06/02 22:30:11;;;;;;;0.70;0.50;;;;;;;12.86;100.00;98834.03;15281367;19;19922;-60
2022/06/02 22:35:36;;;;;;;1.10;0.60;;;;;;;12.79;100.00;98820.34;15279126;19;20011;-59
2022/06/02 22:41:01;;;;;;;0.88;0.60;;;;;;;12.77;100.00;98825.06;15282442;19;20276;-59
2022/06/02 22:46:28;;;;;;;2.47;0.60;;;;;;;12.68;100.00;98826.06;15277967;19;20027;-57
2022/06/02 22:52:03;;;;;;;0.63;0.50;;;;;;;12.63;100.00;98829.25;15274436;19;20030;-60
2022/06/02 22:57:30;;;;;;;0.95;0.65;;;;;;;12.57;100.00;98835.34;15278190;19;20011;-58
2022/06/02 23:03:04;;;;;;;1.00;0.68;;;;;;;12.49;100.00;98833.44;15278377;19;20468;-59
2022/06/02 23:08:31;;;;;;;0.82;0.60;;;;;;;12.44;100.00;98827.69;15277053;19;20028;-60
2022/06/02 23:13:58;;;;;;;0.77;0.73;;;;;;;12.33;100.00;98824.25;15278612;19;20495;-59
2022/06/02 23:19:20;;;;;;;1.30;0.65;;;;;;;12.31;100.00;98826.28;15277568;19;20018;-60
2022/06/02 23:24:46;;;;;;;1.42;0.80;;;;;;;12.28;100.00;98829.31;15269122;19;20018;-60
2022/06/02 23:30:03;;;;;;;0.75;0.60;;;;;;;12.25;100.00;98831.47;15278513;19;20011;-61
2022/06/02 23:35:19;;;;;;;1.45;0.80;;;;;;;12.24;100.00;98829.78;15273193;19;20030;-61
2022/06/02 23:40:37;;;;;;;1.85;0.80;;;;;;;12.13;100.00;98829.06;15274910;19;20011;-61
2022/06/02 23:46:06;;;;;;;0.80;0.80;;;;;;;12.07;100.00;98820.75;15274741;19;20471;-61
2022/06/02 23:51:25;;;;;;;1.13;0.80;;;;;;;11.97;100.00;98827.09;15281085;19;20017;-56
2022/06/02 23:56:54;;;;;;;0.80;0.80;;;;;;;11.83;100.00;98827.69;15266793;19;20471;-60
